sensor_id;sensor_type;location;lat;lon;timestamp;P1;durP1;ratioP1;P2;durP2;ratioP2
63499;SDS011;49654;51.142;14.924;2023-08-31T00:01:33;8.88;;;7.53;;
63499;SDS011;49654;51.142;14.924;2023-08-31T00:04:00;7.63;;;6.85;;
63499;SDS011;49654;51.142;14.924;2023-08-31T00:06:27;8.60;;;6.97;;
63499;SDS011;49654;51.142;14.924;2023-08-31T00:08:53;7.43;;;6.70;;
63499;SDS011;49654;51.142;14.924;2023-08-31T00:11:20;6.75;;;6.05;;
63499;SDS011;49654;51.142;14.924;2023-08-31T00:13:47;7.25;;;6.47;;
63499;SDS011;49654;51.142;14.924;2023-08-31T00:16:14;7.25;;;6.65;;
63499;SDS011;49654;51.142;14.924;2023-08-31T00:18:43;6.82;;;6.20;;
63499;SDS011;49654;51.142;14.924;2023-08-31T00:21:10;6.85;;;6.25;;
63499;SDS011;49654;51.142;14.924;2023-08-31T00:23:38;7.80;;;6.68;;
63499;SDS011;49654;51.142;14.924;2023-08-31T00:26:05;7.32;;;6.65;;
63499;SDS011;49654;51.142;14.924;2023-08-31T00:28:32;7.85;;;6.80;;
63499;SDS011;49654;51.142;14.924;2023-08-31T00:31:00;7.88;;;7.07;;
63499;SDS011;49654;51.142;14.924;2023-08-31T00:33:29;7.72;;;6.25;;
63499;SDS011;49654;51.142;14.924;2023-08-31T00:35:58;7.68;;;6.40;;
63499;SDS011;49654;51.142;14.924;2023-08-31T00:38:28;6.93;;;6.22;;
63499;SDS011;49654;51.142;14.924;2023-08-31T00:40:56;7.25;;;6.55;;
63499;SDS011;49654;51.142;14.924;2023-08-31T00:43:23;7.53;;;6.25;;
63499;SDS011;49654;51.142;14.924;2023-08-31T00:45:51;8.82;;;6.38;;
63499;SDS011;49654;51.142;14.924;2023-08-31T00:48:22;7.82;;;7.13;;
63499;SDS011;49654;51.142;14.924;2023-08-31T00:50:49;8.45;;;7.10;;
63499;SDS011;49654;51.142;14.924;2023-08-31T00:53:18;8.05;;;7.28;;
63499;SDS011;49654;51.142;14.924;2023-08-31T00:55:45;8.07;;;7.28;;
63499;SDS011;49654;51.142;14.924;2023-08-31T00:58:13;8.27;;;7.47;;
63499;SDS011;49654;51.142;14.924;2023-08-31T01:00:42;8.15;;;7.45;;
63499;SDS011;49654;51.142;14.924;2023-08-31T01:03:17;8.82;;;7.93;;
63499;SDS011;49654;51.142;14.924;2023-08-31T01:05:52;8.65;;;7.85;;
63499;SDS011;49654;51.142;14.924;2023-08-31T01:08:29;7.80;;;7.00;;
63499;SDS011;49654;51.142;14.924;2023-08-31T01:11:05;8.35;;;7.47;;
63499;SDS011;49654;51.142;14.924;2023-08-31T01:13:43;8.43;;;7.60;;
63499;SDS011;49654;51.142;14.924;2023-08-31T01:16:14;8.75;;;7.88;;
63499;SDS011;49654;51.142;14.924;2023-08-31T01:18:43;10.50;;;7.95;;
63499;SDS011;49654;51.142;14.924;2023-08-31T01:21:16;9.23;;;8.30;;
63499;SDS011;49654;51.142;14.924;2023-08-31T01:23:52;8.43;;;7.63;;
63499;SDS011;49654;51.142;14.924;2023-08-31T01:26:19;9.32;;;7.53;;
63499;SDS011;49654;51.142;14.924;2023-08-31T01:28:47;8.85;;;8.00;;
63499;SDS011;49654;51.142;14.924;2023-08-31T01:31:15;8.93;;;8.02;;
63499;SDS011;49654;51.142;14.924;2023-08-31T01:33:42;8.35;;;7.50;;
63499;SDS011;49654;51.142;14.924;2023-08-31T01:36:12;10.15;;;7.55;;
63499;SDS011;49654;51.142;14.924;2023-08-31T01:38:45;8.00;;;7.30;;
63499;SDS011;49654;51.142;14.924;2023-08-31T01:41:19;7.75;;;7.05;;
63499;SDS011;49654;51.142;14.924;2023-08-31T01:43:48;8.18;;;7.15;;
63499;SDS011;49654;51.142;14.924;2023-08-31T01:46:18;7.30;;;6.60;;
63499;SDS011;49654;51.142;14.924;2023-08-31T01:48:46;8.50;;;7.65;;
63499;SDS011;49654;51.142;14.924;2023-08-31T01:51:13;13.10;;;7.53;;
63499;SDS011;49654;51.142;14.924;2023-08-31T01:53:40;8.57;;;7.45;;
63499;SDS011;49654;51.142;14.924;2023-08-31T01:56:07;12.38;;;8.43;;
63499;SDS011;49654;51.142;14.924;2023-08-31T01:58:35;8.98;;;8.02;;
63499;SDS011;49654;51.142;14.924;2023-08-31T02:01:02;8.32;;;7.43;;
63499;SDS011;49654;51.142;14.924;2023-08-31T02:03:29;9.57;;;8.68;;
63499;SDS011;49654;51.142;14.924;2023-08-31T02:05:56;8.63;;;7.82;;
63499;SDS011;49654;51.142;14.924;2023-08-31T02:08:23;9.15;;;8.20;;
63499;SDS011;49654;51.142;14.924;2023-08-31T02:10:50;9.07;;;8.05;;
63499;SDS011;49654;51.142;14.924;2023-08-31T02:13:19;9.18;;;8.35;;
63499;SDS011;49654;51.142;14.924;2023-08-31T02:15:50;10.88;;;9.13;;
63499;SDS011;49654;51.142;14.924;2023-08-31T02:18:18;12.18;;;8.88;;
63499;SDS011;49654;51.142;14.924;2023-08-31T02:20:44;9.32;;;8.40;;
63499;SDS011;49654;51.142;14.924;2023-08-31T02:23:12;9.00;;;8.10;;
63499;SDS011;49654;51.142;14.924;2023-08-31T02:25:39;9.00;;;8.10;;
63499;SDS011;49654;51.142;14.924;2023-08-31T02:28:06;11.68;;;8.40;;
63499;SDS011;49654;51.142;14.924;2023-08-31T02:30:32;9.85;;;8.52;;
63499;SDS011;49654;51.142;14.924;2023-08-31T02:33:01;9.23;;;8.20;;
63499;SDS011;49654;51.142;14.924;2023-08-31T02:35:28;10.65;;;8.35;;
63499;SDS011;49654;51.142;14.924;2023-08-31T02:37:55;9.65;;;8.60;;
63499;SDS011;49654;51.142;14.924;2023-08-31T02:40:22;9.52;;;8.18;;
63499;SDS011;49654;51.142;14.924;2023-08-31T02:42:50;9.27;;;8.38;;
63499;SDS011;49654;51.142;14.924;2023-08-31T02:45:17;9.85;;;8.93;;
63499;SDS011;49654;51.142;14.924;2023-08-31T02:47:44;10.18;;;9.07;;
63499;SDS011;49654;51.142;14.924;2023-08-31T02:50:12;9.93;;;8.93;;
63499;SDS011;49654;51.142;14.924;2023-08-31T02:52:40;10.45;;;9.02;;
63499;SDS011;49654;51.142;14.924;2023-08-31T02:55:07;9.43;;;8.48;;
63499;SDS011;49654;51.142;14.924;2023-08-31T02:57:34;11.95;;;9.32;;
63499;SDS011;49654;51.142;14.924;2023-08-31T03:00:01;8.93;;;8.13;;
63499;SDS011;49654;51.142;14.924;2023-08-31T03:02:29;10.23;;;8.38;;
63499;SDS011;49654;51.142;14.924;2023-08-31T03:04:56;10.27;;;9.15;;
63499;SDS011;49654;51.142;14.924;2023-08-31T03:07:24;10.73;;;9.73;;
63499;SDS011;49654;51.142;14.924;2023-08-31T03:09:51;10.98;;;9.98;;
63499;SDS011;49654;51.142;14.924;2023-08-31T03:12:18;10.45;;;9.45;;
63499;SDS011;49654;51.142;14.924;2023-08-31T03:14:45;11.20;;;9.95;;
63499;SDS011;49654;51.142;14.924;2023-08-31T03:17:12;10.20;;;9.20;;
63499;SDS011;49654;51.142;14.924;2023-08-31T03:19:39;9.88;;;9.00;;
63499;SDS011;49654;51.142;14.924;2023-08-31T03:22:08;10.13;;;9.13;;
63499;SDS011;49654;51.142;14.924;2023-08-31T03:24:36;9.55;;;8.60;;
63499;SDS011;49654;51.142;14.924;2023-08-31T03:27:03;9.50;;;8.52;;
63499;SDS011;49654;51.142;14.924;2023-08-31T03:29:30;10.27;;;8.60;;
63499;SDS011;49654;51.142;14.924;2023-08-31T03:31:59;9.32;;;8.40;;
63499;SDS011;49654;51.142;14.924;2023-08-31T03:34:28;12.30;;;8.57;;
63499;SDS011;49654;51.142;14.924;2023-08-31T03:36:55;10.18;;;9.18;;
63499;SDS011;49654;51.142;14.924;2023-08-31T03:39:23;9.90;;;8.90;;
63499;SDS011;49654;51.142;14.924;2023-08-31T03:41:51;11.35;;;9.00;;
63499;SDS011;49654;51.142;14.924;2023-08-31T03:44:20;11.05;;;9.98;;
63499;SDS011;49654;51.142;14.924;2023-08-31T03:46:47;12.23;;;10.70;;
63499;SDS011;49654;51.142;14.924;2023-08-31T03:49:14;10.85;;;9.75;;
63499;SDS011;49654;51.142;14.924;2023-08-31T03:51:41;11.20;;;10.20;;
63499;SDS011;49654;51.142;14.924;2023-08-31T03:54:09;11.95;;;9.80;;
63499;SDS011;49654;51.142;14.924;2023-08-31T03:56:36;12.40;;;11.13;;
63499;SDS011;49654;51.142;14.924;2023-08-31T03:59:04;12.18;;;10.98;;
63499;SDS011;49654;51.142;14.924;2023-08-31T04:01:32;12.50;;;11.40;;
63499;SDS011;49654;51.142;14.924;2023-08-31T04:03:59;12.43;;;11.23;;
63499;SDS011;49654;51.142;14.924;2023-08-31T04:06:26;13.27;;;12.00;;
63499;SDS011;49654;51.142;14.924;2023-08-31T04:08:54;13.93;;;12.27;;
63499;SDS011;49654;51.142;14.924;2023-08-31T04:11:21;13.23;;;12.02;;
63499;SDS011;49654;51.142;14.924;2023-08-31T04:13:48;13.63;;;12.23;;
63499;SDS011;49654;51.142;14.924;2023-08-31T04:16:16;13.10;;;11.82;;
63499;SDS011;49654;51.142;14.924;2023-08-31T04:18:44;13.50;;;12.10;;
63499;SDS011;49654;51.142;14.924;2023-08-31T04:21:13;13.95;;;12.55;;
63499;SDS011;49654;51.142;14.924;2023-08-31T04:23:40;13.45;;;12.15;;
63499;SDS011;49654;51.142;14.924;2023-08-31T04:26:10;14.20;;;12.70;;
63499;SDS011;49654;51.142;14.924;2023-08-31T04:28:38;13.93;;;12.63;;
63499;SDS011;49654;51.142;14.924;2023-08-31T04:31:06;13.75;;;12.50;;
63499;SDS011;49654;51.142;14.924;2023-08-31T04:33:36;14.50;;;13.10;;
63499;SDS011;49654;51.142;14.924;2023-08-31T04:36:04;14.15;;;12.75;;
63499;SDS011;49654;51.142;14.924;2023-08-31T04:38:31;15.55;;;13.93;;
63499;SDS011;49654;51.142;14.924;2023-08-31T04:40:58;15.35;;;13.82;;
63499;SDS011;49654;51.142;14.924;2023-08-31T04:43:26;15.50;;;13.90;;
63499;SDS011;49654;51.142;14.924;2023-08-31T04:45:53;16.38;;;14.88;;
63499;SDS011;49654;51.142;14.924;2023-08-31T04:48:21;16.73;;;15.13;;
63499;SDS011;49654;51.142;14.924;2023-08-31T04:50:50;15.20;;;13.40;;
63499;SDS011;49654;51.142;14.924;2023-08-31T04:53:19;15.45;;;13.57;;
63499;SDS011;49654;51.142;14.924;2023-08-31T04:55:46;14.85;;;13.45;;
63499;SDS011;49654;51.142;14.924;2023-08-31T04:58:13;14.60;;;13.20;;
63499;SDS011;49654;51.142;14.924;2023-08-31T05:00:40;14.70;;;13.20;;
63499;SDS011;49654;51.142;14.924;2023-08-31T05:03:07;15.15;;;13.70;;
63499;SDS011;49654;51.142;14.924;2023-08-31T05:05:34;16.25;;;13.20;;
63499;SDS011;49654;51.142;14.924;2023-08-31T05:08:03;15.07;;;13.57;;
63499;SDS011;49654;51.142;14.924;2023-08-31T05:10:30;14.93;;;13.43;;
63499;SDS011;49654;51.142;14.924;2023-08-31T05:12:57;14.38;;;12.95;;
63499;SDS011;49654;51.142;14.924;2023-08-31T05:15:24;13.77;;;12.38;;
63499;SDS011;49654;51.142;14.924;2023-08-31T05:17:53;13.27;;;12.07;;
63499;SDS011;49654;51.142;14.924;2023-08-31T05:20:20;11.77;;;10.57;;
63499;SDS011;49654;51.142;14.924;2023-08-31T05:22:48;9.98;;;9.07;;
63499;SDS011;49654;51.142;14.924;2023-08-31T05:25:16;9.73;;;8.82;;
63499;SDS011;49654;51.142;14.924;2023-08-31T05:27:43;10.50;;;9.13;;
63499;SDS011;49654;51.142;14.924;2023-08-31T05:30:10;9.68;;;8.57;;
63499;SDS011;49654;51.142;14.924;2023-08-31T05:32:38;9.23;;;8.38;;
63499;SDS011;49654;51.142;14.924;2023-08-31T05:35:05;7.80;;;7.00;;
63499;SDS011;49654;51.142;14.924;2023-08-31T05:37:33;7.53;;;6.93;;
63499;SDS011;49654;51.142;14.924;2023-08-31T05:40:01;5.85;;;5.35;;
63499;SDS011;49654;51.142;14.924;2023-08-31T05:42:33;6.85;;;4.40;;
63499;SDS011;49654;51.142;14.924;2023-08-31T05:45:00;5.10;;;3.95;;
63499;SDS011;49654;51.142;14.924;2023-08-31T05:47:27;4.15;;;3.78;;
63499;SDS011;49654;51.142;14.924;2023-08-31T05:49:54;4.00;;;2.97;;
63499;SDS011;49654;51.142;14.924;2023-08-31T05:52:21;3.20;;;2.70;;
63499;SDS011;49654;51.142;14.924;2023-08-31T05:54:48;2.63;;;2.42;;
63499;SDS011;49654;51.142;14.924;2023-08-31T05:57:18;4.07;;;2.15;;
63499;SDS011;49654;51.142;14.924;2023-08-31T05:59:47;3.40;;;2.22;;
63499;SDS011;49654;51.142;14.924;2023-08-31T06:02:14;2.05;;;1.88;;
63499;SDS011;49654;51.142;14.924;2023-08-31T06:04:42;2.10;;;1.90;;
63499;SDS011;49654;51.142;14.924;2023-08-31T06:07:09;2.40;;;2.20;;
63499;SDS011;49654;51.142;14.924;2023-08-31T06:09:36;2.70;;;2.08;;
63499;SDS011;49654;51.142;14.924;2023-08-31T06:12:04;2.10;;;1.90;;
63499;SDS011;49654;51.142;14.924;2023-08-31T06:14:32;2.00;;;1.80;;
63499;SDS011;49654;51.142;14.924;2023-08-31T06:17:00;3.60;;;2.13;;
63499;SDS011;49654;51.142;14.924;2023-08-31T06:19:28;1.95;;;1.75;;
63499;SDS011;49654;51.142;14.924;2023-08-31T06:21:55;2.35;;;1.80;;
63499;SDS011;49654;51.142;14.924;2023-08-31T06:24:22;2.60;;;1.73;;
63499;SDS011;49654;51.142;14.924;2023-08-31T06:26:49;2.17;;;1.95;;
63499;SDS011;49654;51.142;14.924;2023-08-31T06:29:17;3.45;;;2.20;;
63499;SDS011;49654;51.142;14.924;2023-08-31T06:31:44;1.75;;;1.52;;
63499;SDS011;49654;51.142;14.924;2023-08-31T06:34:13;2.78;;;1.52;;
63499;SDS011;49654;51.142;14.924;2023-08-31T06:36:40;2.20;;;1.70;;
63499;SDS011;49654;51.142;14.924;2023-08-31T06:39:07;1.92;;;1.60;;
63499;SDS011;49654;51.142;14.924;2023-08-31T06:41:34;1.60;;;1.50;;
63499;SDS011;49654;51.142;14.924;2023-08-31T06:44:01;2.03;;;1.70;;
63499;SDS011;49654;51.142;14.924;2023-08-31T06:46:29;2.90;;;1.77;;
63499;SDS011;49654;51.142;14.924;2023-08-31T06:48:59;1.90;;;1.50;;
63499;SDS011;49654;51.142;14.924;2023-08-31T06:51:27;2.53;;;1.88;;
63499;SDS011;49654;51.142;14.924;2023-08-31T06:53:54;2.92;;;1.70;;
63499;SDS011;49654;51.142;14.924;2023-08-31T06:56:21;2.30;;;1.90;;
63499;SDS011;49654;51.142;14.924;2023-08-31T06:58:48;2.78;;;2.00;;
63499;SDS011;49654;51.142;14.924;2023-08-31T07:01:15;2.40;;;1.80;;
63499;SDS011;49654;51.142;14.924;2023-08-31T07:03:42;2.33;;;1.65;;
63499;SDS011;49654;51.142;14.924;2023-08-31T07:06:09;2.67;;;1.80;;
63499;SDS011;49654;51.142;14.924;2023-08-31T07:08:38;2.78;;;1.80;;
63499;SDS011;49654;51.142;14.924;2023-08-31T07:11:07;1.55;;;1.35;;
63499;SDS011;49654;51.142;14.924;2023-08-31T07:13:34;2.75;;;1.70;;
63499;SDS011;49654;51.142;14.924;2023-08-31T07:16:01;2.92;;;1.85;;
63499;SDS011;49654;51.142;14.924;2023-08-31T07:18:28;2.28;;;1.92;;
63499;SDS011;49654;51.142;14.924;2023-08-31T07:20:55;2.78;;;2.00;;
63499;SDS011;49654;51.142;14.924;2023-08-31T07:23:22;3.67;;;2.00;;
63499;SDS011;49654;51.142;14.924;2023-08-31T07:25:50;4.20;;;2.25;;
63499;SDS011;49654;51.142;14.924;2023-08-31T07:28:17;3.53;;;2.20;;
63499;SDS011;49654;51.142;14.924;2023-08-31T07:30:44;4.15;;;2.10;;
63499;SDS011;49654;51.142;14.924;2023-08-31T07:33:11;3.20;;;2.40;;
63499;SDS011;49654;51.142;14.924;2023-08-31T07:35:38;2.50;;;2.25;;
63499;SDS011;49654;51.142;14.924;2023-08-31T07:38:05;3.50;;;2.28;;
63499;SDS011;49654;51.142;14.924;2023-08-31T07:40:32;4.10;;;2.60;;
63499;SDS011;49654;51.142;14.924;2023-08-31T07:43:00;3.75;;;2.63;;
63499;SDS011;49654;51.142;14.924;2023-08-31T07:45:27;3.33;;;2.53;;
63499;SDS011;49654;51.142;14.924;2023-08-31T07:47:54;5.22;;;3.05;;
63499;SDS011;49654;51.142;14.924;2023-08-31T07:50:21;3.50;;;2.95;;
63499;SDS011;49654;51.142;14.924;2023-08-31T07:52:48;4.75;;;3.05;;
63499;SDS011;49654;51.142;14.924;2023-08-31T07:55:15;4.78;;;3.38;;
63499;SDS011;49654;51.142;14.924;2023-08-31T07:57:42;4.22;;;3.67;;
63499;SDS011;49654;51.142;14.924;2023-08-31T08:00:11;4.55;;;3.45;;
63499;SDS011;49654;51.142;14.924;2023-08-31T08:02:40;3.90;;;3.58;;
63499;SDS011;49654;51.142;14.924;2023-08-31T08:05:07;7.03;;;3.95;;
63499;SDS011;49654;51.142;14.924;2023-08-31T08:07:35;6.75;;;4.28;;
63499;SDS011;49654;51.142;14.924;2023-08-31T08:10:02;8.63;;;4.15;;
63499;SDS011;49654;51.142;14.924;2023-08-31T08:12:36;4.57;;;3.47;;
63499;SDS011;49654;51.142;14.924;2023-08-31T08:15:04;5.93;;;3.85;;
63499;SDS011;49654;51.142;14.924;2023-08-31T08:17:33;4.38;;;3.65;;
63499;SDS011;49654;51.142;14.924;2023-08-31T08:20:00;6.57;;;4.45;;
63499;SDS011;49654;51.142;14.924;2023-08-31T08:22:28;7.40;;;3.97;;
63499;SDS011;49654;51.142;14.924;2023-08-31T08:24:55;5.40;;;4.00;;
63499;SDS011;49654;51.142;14.924;2023-08-31T08:27:22;7.50;;;3.95;;
63499;SDS011;49654;51.142;14.924;2023-08-31T08:29:49;6.47;;;4.00;;
63499;SDS011;49654;51.142;14.924;2023-08-31T08:32:16;5.57;;;3.50;;
63499;SDS011;49654;51.142;14.924;2023-08-31T08:34:45;5.13;;;3.60;;
63499;SDS011;49654;51.142;14.924;2023-08-31T08:37:12;4.28;;;3.40;;
63499;SDS011;49654;51.142;14.924;2023-08-31T08:39:39;4.95;;;3.30;;
63499;SDS011;49654;51.142;14.924;2023-08-31T08:42:05;6.60;;;3.40;;
63499;SDS011;49654;51.142;14.924;2023-08-31T08:44:36;7.32;;;3.50;;
63499;SDS011;49654;51.142;14.924;2023-08-31T08:47:03;7.45;;;3.15;;
63499;SDS011;49654;51.142;14.924;2023-08-31T08:49:30;4.63;;;2.97;;
63499;SDS011;49654;51.142;14.924;2023-08-31T08:51:59;4.25;;;3.10;;
63499;SDS011;49654;51.142;14.924;2023-08-31T08:54:27;5.40;;;3.10;;
63499;SDS011;49654;51.142;14.924;2023-08-31T08:56:54;3.97;;;2.85;;
63499;SDS011;49654;51.142;14.924;2023-08-31T08:59:21;4.43;;;2.63;;
63499;SDS011;49654;51.142;14.924;2023-08-31T09:01:48;5.13;;;2.80;;
63499;SDS011;49654;51.142;14.924;2023-08-31T09:04:15;5.43;;;3.15;;
63499;SDS011;49654;51.142;14.924;2023-08-31T09:06:43;5.97;;;2.97;;
63499;SDS011;49654;51.142;14.924;2023-08-31T09:09:11;3.45;;;2.65;;
63499;SDS011;49654;51.142;14.924;2023-08-31T09:11:38;3.55;;;3.10;;
63499;SDS011;49654;51.142;14.924;2023-08-31T09:14:14;4.93;;;3.13;;
63499;SDS011;49654;51.142;14.924;2023-08-31T09:16:43;2.85;;;2.40;;
63499;SDS011;49654;51.142;14.924;2023-08-31T09:19:17;4.53;;;2.58;;
63499;SDS011;49654;51.142;14.924;2023-08-31T09:21:45;3.72;;;2.70;;
63499;SDS011;49654;51.142;14.924;2023-08-31T09:24:15;5.07;;;2.60;;
63499;SDS011;49654;51.142;14.924;2023-08-31T09:26:43;6.35;;;3.05;;
63499;SDS011;49654;51.142;14.924;2023-08-31T09:29:11;5.90;;;3.42;;
63499;SDS011;49654;51.142;14.924;2023-08-31T09:31:41;4.68;;;2.35;;
63499;SDS011;49654;51.142;14.924;2023-08-31T09:34:08;4.47;;;2.72;;
63499;SDS011;49654;51.142;14.924;2023-08-31T09:36:36;3.63;;;2.45;;
63499;SDS011;49654;51.142;14.924;2023-08-31T09:39:03;4.10;;;2.20;;
63499;SDS011;49654;51.142;14.924;2023-08-31T09:41:33;4.78;;;2.22;;
63499;SDS011;49654;51.142;14.924;2023-08-31T09:44:14;2.85;;;2.40;;
63499;SDS011;49654;51.142;14.924;2023-08-31T09:46:42;5.82;;;2.22;;
63499;SDS011;49654;51.142;14.924;2023-08-31T09:49:10;5.10;;;2.70;;
63499;SDS011;49654;51.142;14.924;2023-08-31T09:51:39;3.88;;;2.40;;
63499;SDS011;49654;51.142;14.924;2023-08-31T09:54:11;3.80;;;2.25;;
63499;SDS011;49654;51.142;14.924;2023-08-31T09:56:42;4.20;;;2.70;;
63499;SDS011;49654;51.142;14.924;2023-08-31T09:59:09;4.70;;;2.50;;
63499;SDS011;49654;51.142;14.924;2023-08-31T10:01:38;3.78;;;1.83;;
63499;SDS011;49654;51.142;14.924;2023-08-31T10:04:05;3.80;;;2.00;;
63499;SDS011;49654;51.142;14.924;2023-08-31T10:06:34;4.25;;;1.98;;
63499;SDS011;49654;51.142;14.924;2023-08-31T10:09:01;2.58;;;1.75;;
63499;SDS011;49654;51.142;14.924;2023-08-31T10:11:30;3.38;;;2.00;;
63499;SDS011;49654;51.142;14.924;2023-08-31T10:13:59;5.63;;;2.08;;
63499;SDS011;49654;51.142;14.924;2023-08-31T10:16:27;3.72;;;2.17;;
63499;SDS011;49654;51.142;14.924;2023-08-31T10:18:54;2.70;;;1.90;;
63499;SDS011;49654;51.142;14.924;2023-08-31T10:21:22;3.72;;;2.08;;
63499;SDS011;49654;51.142;14.924;2023-08-31T10:23:49;3.38;;;2.10;;
63499;SDS011;49654;51.142;14.924;2023-08-31T10:26:23;4.00;;;2.10;;
63499;SDS011;49654;51.142;14.924;2023-08-31T10:28:51;3.17;;;1.98;;
63499;SDS011;49654;51.142;14.924;2023-08-31T10:31:20;3.15;;;2.00;;
63499;SDS011;49654;51.142;14.924;2023-08-31T10:33:54;3.60;;;2.20;;
63499;SDS011;49654;51.142;14.924;2023-08-31T10:36:33;6.35;;;2.20;;
63499;SDS011;49654;51.142;14.924;2023-08-31T10:39:04;4.07;;;2.15;;
63499;SDS011;49654;51.142;14.924;2023-08-31T10:41:34;3.05;;;1.90;;
63499;SDS011;49654;51.142;14.924;2023-08-31T10:44:02;2.72;;;1.80;;
63499;SDS011;49654;51.142;14.924;2023-08-31T10:46:43;4.05;;;2.20;;
63499;SDS011;49654;51.142;14.924;2023-08-31T10:49:14;4.38;;;2.13;;
63499;SDS011;49654;51.142;14.924;2023-08-31T10:51:43;4.45;;;2.08;;
63499;SDS011;49654;51.142;14.924;2023-08-31T10:54:12;3.45;;;1.90;;
63499;SDS011;49654;51.142;14.924;2023-08-31T10:56:52;2.58;;;2.08;;
63499;SDS011;49654;51.142;14.924;2023-08-31T10:59:20;3.28;;;1.80;;
63499;SDS011;49654;51.142;14.924;2023-08-31T11:01:53;3.47;;;1.65;;
63499;SDS011;49654;51.142;14.924;2023-08-31T11:04:22;4.35;;;2.50;;
63499;SDS011;49654;51.142;14.924;2023-08-31T11:09:41;3.17;;;2.10;;
63499;SDS011;49654;51.142;14.924;2023-08-31T11:12:09;6.07;;;2.15;;
63499;SDS011;49654;51.142;14.924;2023-08-31T11:14:36;2.83;;;1.80;;
63499;SDS011;49654;51.142;14.924;2023-08-31T11:17:05;3.67;;;1.80;;
63499;SDS011;49654;51.142;14.924;2023-08-31T11:19:33;4.30;;;2.15;;
63499;SDS011;49654;51.142;14.924;2023-08-31T11:22:01;3.20;;;1.83;;
63499;SDS011;49654;51.142;14.924;2023-08-31T11:24:29;3.13;;;1.70;;
63499;SDS011;49654;51.142;14.924;2023-08-31T11:26:56;4.57;;;1.90;;
63499;SDS011;49654;51.142;14.924;2023-08-31T11:29:23;2.05;;;1.65;;
63499;SDS011;49654;51.142;14.924;2023-08-31T11:31:50;2.80;;;2.00;;
63499;SDS011;49654;51.142;14.924;2023-08-31T11:34:19;3.65;;;1.73;;
63499;SDS011;49654;51.142;14.924;2023-08-31T11:36:46;3.47;;;1.95;;
63499;SDS011;49654;51.142;14.924;2023-08-31T11:39:15;4.70;;;2.10;;
63499;SDS011;49654;51.142;14.924;2023-08-31T11:41:44;2.63;;;1.77;;
63499;SDS011;49654;51.142;14.924;2023-08-31T11:44:12;3.15;;;1.95;;
63499;SDS011;49654;51.142;14.924;2023-08-31T11:46:41;3.70;;;1.90;;
63499;SDS011;49654;51.142;14.924;2023-08-31T11:49:09;5.00;;;1.85;;
63499;SDS011;49654;51.142;14.924;2023-08-31T11:51:38;2.88;;;1.73;;
63499;SDS011;49654;51.142;14.924;2023-08-31T11:54:06;2.30;;;1.60;;
63499;SDS011;49654;51.142;14.924;2023-08-31T11:56:40;2.20;;;1.77;;
63499;SDS011;49654;51.142;14.924;2023-08-31T11:59:09;2.70;;;1.60;;
63499;SDS011;49654;51.142;14.924;2023-08-31T12:01:38;4.30;;;1.60;;
63499;SDS011;49654;51.142;14.924;2023-08-31T12:04:09;3.17;;;1.65;;
63499;SDS011;49654;51.142;14.924;2023-08-31T12:06:39;2.05;;;1.60;;
63499;SDS011;49654;51.142;14.924;2023-08-31T12:09:07;2.45;;;1.80;;
63499;SDS011;49654;51.142;14.924;2023-08-31T12:11:35;2.00;;;1.55;;
63499;SDS011;49654;51.142;14.924;2023-08-31T12:14:03;2.10;;;1.80;;
63499;SDS011;49654;51.142;14.924;2023-08-31T12:16:33;4.63;;;1.70;;
63499;SDS011;49654;51.142;14.924;2023-08-31T12:19:03;3.72;;;1.60;;
63499;SDS011;49654;51.142;14.924;2023-08-31T12:21:30;2.60;;;1.60;;
63499;SDS011;49654;51.142;14.924;2023-08-31T12:23:59;3.13;;;1.70;;
63499;SDS011;49654;51.142;14.924;2023-08-31T12:26:26;2.28;;;1.55;;
63499;SDS011;49654;51.142;14.924;2023-08-31T12:28:53;2.10;;;1.50;;
63499;SDS011;49654;51.142;14.924;2023-08-31T12:31:21;3.50;;;1.80;;
63499;SDS011;49654;51.142;14.924;2023-08-31T12:33:49;2.20;;;1.60;;
63499;SDS011;49654;51.142;14.924;2023-08-31T12:36:16;2.22;;;1.70;;
63499;SDS011;49654;51.142;14.924;2023-08-31T12:38:43;2.70;;;1.70;;
63499;SDS011;49654;51.142;14.924;2023-08-31T12:41:12;2.70;;;1.90;;
63499;SDS011;49654;51.142;14.924;2023-08-31T12:43:39;7.13;;;2.00;;
63499;SDS011;49654;51.142;14.924;2023-08-31T12:46:06;2.05;;;1.80;;
63499;SDS011;49654;51.142;14.924;2023-08-31T12:48:34;2.80;;;1.85;;
63499;SDS011;49654;51.142;14.924;2023-08-31T12:51:01;3.42;;;2.00;;
63499;SDS011;49654;51.142;14.924;2023-08-31T12:53:29;2.72;;;1.50;;
63499;SDS011;49654;51.142;14.924;2023-08-31T12:55:56;3.63;;;2.00;;
63499;SDS011;49654;51.142;14.924;2023-08-31T12:58:24;2.58;;;1.60;;
63499;SDS011;49654;51.142;14.924;2023-08-31T13:00:51;4.43;;;2.83;;
63499;SDS011;49654;51.142;14.924;2023-08-31T13:03:19;5.28;;;3.00;;
63499;SDS011;49654;51.142;14.924;2023-08-31T13:05:46;4.60;;;2.88;;
63499;SDS011;49654;51.142;14.924;2023-08-31T13:08:14;3.67;;;3.08;;
63499;SDS011;49654;51.142;14.924;2023-08-31T13:10:41;4.20;;;3.30;;
63499;SDS011;49654;51.142;14.924;2023-08-31T13:13:08;5.90;;;3.25;;
63499;SDS011;49654;51.142;14.924;2023-08-31T13:15:37;4.53;;;3.65;;
63499;SDS011;49654;51.142;14.924;2023-08-31T13:18:04;4.97;;;3.38;;
63499;SDS011;49654;51.142;14.924;2023-08-31T13:20:31;7.85;;;3.70;;
63499;SDS011;49654;51.142;14.924;2023-08-31T13:22:58;6.47;;;3.92;;
63499;SDS011;49654;51.142;14.924;2023-08-31T13:25:25;5.38;;;3.70;;
63499;SDS011;49654;51.142;14.924;2023-08-31T13:27:52;5.55;;;3.10;;
63499;SDS011;49654;51.142;14.924;2023-08-31T13:30:19;4.15;;;3.22;;
63499;SDS011;49654;51.142;14.924;2023-08-31T13:32:47;4.68;;;3.17;;
63499;SDS011;49654;51.142;14.924;2023-08-31T13:35:14;3.22;;;2.75;;
63499;SDS011;49654;51.142;14.924;2023-08-31T13:37:41;4.80;;;2.85;;
63499;SDS011;49654;51.142;14.924;2023-08-31T13:40:09;2.88;;;2.30;;
63499;SDS011;49654;51.142;14.924;2023-08-31T13:42:36;2.88;;;1.75;;
63499;SDS011;49654;51.142;14.924;2023-08-31T13:45:05;2.53;;;1.55;;
63499;SDS011;49654;51.142;14.924;2023-08-31T13:47:33;3.22;;;1.60;;
63499;SDS011;49654;51.142;14.924;2023-08-31T13:50:02;3.65;;;1.40;;
63499;SDS011;49654;51.142;14.924;2023-08-31T13:52:29;2.08;;;1.20;;
63499;SDS011;49654;51.142;14.924;2023-08-31T13:54:56;3.50;;;1.35;;
63499;SDS011;49654;51.142;14.924;2023-08-31T13:57:23;3.67;;;1.20;;
63499;SDS011;49654;51.142;14.924;2023-08-31T13:59:50;1.52;;;0.95;;
63499;SDS011;49654;51.142;14.924;2023-08-31T14:02:18;1.65;;;1.40;;
63499;SDS011;49654;51.142;14.924;2023-08-31T14:04:45;2.05;;;1.50;;
63499;SDS011;49654;51.142;14.924;2023-08-31T14:07:13;1.90;;;1.20;;
63499;SDS011;49654;51.142;14.924;2023-08-31T14:09:40;2.13;;;1.42;;
63499;SDS011;49654;51.142;14.924;2023-08-31T14:12:07;2.90;;;1.40;;
63499;SDS011;49654;51.142;14.924;2023-08-31T14:14:34;1.95;;;1.40;;
63499;SDS011;49654;51.142;14.924;2023-08-31T14:17:01;2.42;;;1.40;;
63499;SDS011;49654;51.142;14.924;2023-08-31T14:19:29;2.17;;;1.67;;
63499;SDS011;49654;51.142;14.924;2023-08-31T14:21:56;2.80;;;1.55;;
63499;SDS011;49654;51.142;14.924;2023-08-31T14:24:24;1.98;;;1.45;;
63499;SDS011;49654;51.142;14.924;2023-08-31T14:26:51;4.25;;;1.50;;
63499;SDS011;49654;51.142;14.924;2023-08-31T14:29:18;2.38;;;1.60;;
63499;SDS011;49654;51.142;14.924;2023-08-31T14:31:45;2.30;;;1.52;;
63499;SDS011;49654;51.142;14.924;2023-08-31T14:34:12;2.55;;;1.45;;
63499;SDS011;49654;51.142;14.924;2023-08-31T14:36:39;2.38;;;1.30;;
63499;SDS011;49654;51.142;14.924;2023-08-31T14:39:06;1.65;;;1.55;;